Jordan, MT (59337)

12:26 PM MDT on July 29, 2016 (GMT -0600)
Pines | | Change Station

Elev 2293 ft 47.83 °N, 106.64 °W | Updated 12 seconds ago

Mostly Cloudy
Mostly Cloudy
80.8 °F
Feels Like 81 °F
N
5.6
Wind Variable Wind from ENE
Gusts 7.4 mph

Today
High -- | Low -- °F
--% Chance of Precip.
Yesterday
High -- | Low -- °F
Precip. -- in
Pressure 30.01 in
Visibility 10.0 miles
Clouds Few 3700 ft
Few 6500 ft
Mostly Cloudy 9500 ft
Heat Index 81 °F
Dew Point 58 °F
Humidity 46%
Rainfall 0.00 in
Snow Depth Not available.
5:41 AM 8:44 PM
Waning Crescent, 20% visible
METAR KGGW 291753Z AUTO 13004KT 10SM FEW037 FEW065 BKN095 23/15 A3003 RMK AO2 RAB20E48 SLP163 P0000 60000 T02330150 10239 20144 58008
Pressure 30.01 in
Visibility 10.0 miles
Clouds Few 3700 ft
Few 6500 ft
Mostly Cloudy 9500 ft
Heat Index 81 °F
Dew Point 58 °F
Humidity 46%
Rainfall 0.00 in
Snow Depth Not available.
5:41 AM 8:44 PM
Waning Crescent, 20% visible
METAR KGGW 291753Z AUTO 13004KT 10SM FEW037 FEW065 BKN095 23/15 A3003 RMK AO2 RAB20E48 SLP163 P0000 60000 T02330150 10239 20144 58008

10-Day Weather Forecast

Almanac

Astronomy

Jul. 29, 2016 Rise Set
Actual Time
Civil Twilight
Nautical Twilight
Astronomical Twilight
Moon
Length of Visible Light
Length of Day
Tomorrow will be .
, % of the Moon is Illuminated

Today's Extremes

State Highs State Lows

Community

WunderPhotos

Upload Photos

1,928,392 photos uploaded!

WunderBlog® & News

Nearby

Air Quality

  Air Quality AQ Index Pollutant
Not available.

Snow Depth

Station Depth Elevation

Earthquake Activity

City Distance Mag. Time & Date
Minimum magnitude displayed is 2.5.

Coastal Water Temperatures

Place Temperature

Stations

Nearby Weather Stations

Station Location Temp. Windchill Dew Point Humidity Wind Precip. Elev Updated Type
                   

Watches & Warnings

There are currently no watches in effect.